地図

経路データ

SID SEASON NUMBER BASIN SUBBASIN NAME ISO_TIME NATURE LAT LON WMO_WIND WMO_PRES WMO_AGENCY TRACK_TYPE DIST2LAND LANDFALL IFLAG USA_AGENCY USA_ATCF_ID USA_LAT USA_LON USA_RECORD USA_STATUS USA_WIND USA_PRES USA_SSHS USA_R34_NE USA_R34_SE USA_R34_SW USA_R34_NW USA_R50_NE USA_R50_SE USA_R50_SW USA_R50_NW USA_R64_NE USA_R64_SE USA_R64_SW USA_R64_NW USA_POCI USA_ROCI USA_RMW USA_EYE TOKYO_LAT TOKYO_LON TOKYO_GRADE TOKYO_WIND TOKYO_PRES TOKYO_R50_DIR TOKYO_R50_LONG TOKYO_R50_SHORT TOKYO_R30_DIR TOKYO_R30_LONG TOKYO_R30_SHORT TOKYO_LAND CMA_LAT CMA_LON CMA_CAT CMA_WIND CMA_PRES HKO_LAT HKO_LON HKO_CAT HKO_WIND HKO_PRES NEWDELHI_LAT NEWDELHI_LON NEWDELHI_GRADE NEWDELHI_WIND NEWDELHI_PRES NEWDELHI_CI NEWDELHI_DP NEWDELHI_POCI REUNION_LAT REUNION_LON REUNION_TYPE REUNION_WIND REUNION_PRES REUNION_TNUM REUNION_CI REUNION_RMW REUNION_R34_NE REUNION_R34_SE REUNION_R34_SW REUNION_R34_NW REUNION_R50_NE REUNION_R50_SE REUNION_R50_SW REUNION_R50_NW REUNION_R64_NE REUNION_R64_SE REUNION_R64_SW REUNION_R64_NW BOM_LAT BOM_LON BOM_TYPE BOM_WIND BOM_PRES BOM_TNUM BOM_CI BOM_RMW BOM_R34_NE BOM_R34_SE BOM_R34_SW BOM_R34_NW BOM_R50_NE BOM_R50_SE BOM_R50_SW BOM_R50_NW BOM_R64_NE BOM_R64_SE BOM_R64_SW BOM_R64_NW BOM_ROCI BOM_POCI BOM_EYE BOM_POS_METHOD BOM_PRES_METHOD NADI_LAT NADI_LON NADI_CAT NADI_WIND NADI_PRES WELLINGTON_LAT WELLINGTON_LON WELLINGTON_WIND WELLINGTON_PRES DS824_LAT DS824_LON DS824_STAGE DS824_WIND DS824_PRES TD9636_LAT TD9636_LON TD9636_STAGE TD9636_WIND TD9636_PRES TD9635_LAT TD9635_LON TD9635_WIND TD9635_PRES TD9635_ROCI NEUMANN_LAT NEUMANN_LON NEUMANN_CLASS NEUMANN_WIND NEUMANN_PRES MLC_LAT MLC_LON MLC_CLASS MLC_WIND MLC_PRES USA_GUST BOM_GUST BOM_GUST_PER REUNION_GUST REUNION_GUST_PER USA_SEAHGT USA_SEARAD_NE USA_SEARAD_SE USA_SEARAD_SW USA_SEARAD_NW STORM_SPEED STORM_DIR
1950269N05153 1950 82 WP MM OSSIA 1950-09-25 18:00:00 TS 5.40000 153.400 main 949 949 __O___________ -1 5.40000 153.400 0 1006 20 304
1950269N05153 1950 82 WP MM OSSIA 1950-09-25 21:00:00 TS 5.95033 152.575 main 993 989 __P___________ -1 5.95033 152.575 0 1006 19 305
1950269N05153 1950 82 WP MM OSSIA 1950-09-26 00:00:00 TS 6.50000 151.800 main 1035 1035 __O___________ -1 6.50000 151.800 0 1006 18 307
1950269N05153 1950 82 WP MM OSSIA 1950-09-26 03:00:00 TS 7.04976 151.100 main 1087 1087 __P___________ -1 7.04976 151.100 0 1006 18 308
1950269N05153 1950 82 WP MM OSSIA 1950-09-26 06:00:00 TS 7.60000 150.400 main 1136 1136 __O___________ -1 7.60000 150.400 0 1006 19 307
1950269N05153 1950 82 WP MM OSSIA 1950-09-26 09:00:00 TS 8.15747 149.607 main 1179 1177 __P___________ -1 8.15747 149.607 0 1006 19 305
1950269N05153 1950 82 WP MM OSSIA 1950-09-26 12:00:00 TS 8.70000 148.800 main 1220 1220 __O___________ -1 8.70000 148.800 0 1006 19 304
1950269N05153 1950 82 WP MM OSSIA 1950-09-26 15:00:00 TS 9.22238 148.027 main 1267 1267 __P___________ -1 9.22238 148.027 0 1005 18 304
1950269N05153 1950 82 WP MM OSSIA 1950-09-26 18:00:00 TS 9.70000 147.300 main 1322 1322 __O___________ -1 9.70000 147.300 0 1005 16 303
1950269N05153 1950 82 WP MM OSSIA 1950-09-26 21:00:00 TS 10.1222 146.642 main 1367 1367 __P___________ -1 10.1222 146.642 0 1005 15 302
1950269N05153 1950 82 WP MM OSSIA 1950-09-27 00:00:00 TS 10.5000 146.000 main 1413 1413 __O___________ -1 10.5000 146.000 0 1005 15 299
1950269N05153 1950 82 WP MM OSSIA 1950-09-27 03:00:00 TS 10.8801 145.278 main 1463 1463 __P___________ -1 10.8801 145.278 0 1004 15 297
1950269N05153 1950 82 WP MM OSSIA 1950-09-27 06:00:00 TS 11.2000 144.600 main 1506 1506 __O___________ -1 11.2000 144.600 1 23 1003 13 295
1950269N05153 1950 82 WP MM OSSIA 1950-09-27 09:00:00 TS 11.4298 144.062 main 1537 1537 __P___________ -1 11.4298 144.062 1 26 1001 11 292
1950269N05153 1950 82 WP MM OSSIA 1950-09-27 12:00:00 TS 11.6000 143.600 main 1570 1570 __O___________ -1 11.6000 143.600 1 29 1000 10 291
1950269N05153 1950 82 WP MM OSSIA 1950-09-27 15:00:00 TS 11.7649 143.150 main 1596 1588 __P___________ -1 11.7649 143.150 1 33 998 9 289
1950269N05153 1950 82 WP MM OSSIA 1950-09-27 18:00:00 TS 11.9000 142.700 main 1592 1585 __O___________ -1 11.9000 142.700 2 38 997 9 284
1950269N05153 1950 82 WP MM OSSIA 1950-09-27 21:00:00 TS 11.9999 142.215 main 1586 1580 __P___________ -1 11.9999 142.215 2 38 996 10 282
1950269N05153 1950 82 WP MM OSSIA 1950-09-28 00:00:00 TS 12.1000 141.700 main 1581 1569 __O___________ -1 12.1000 141.700 2 38 995 11 283
1950269N05153 1950 82 WP MM OSSIA 1950-09-28 03:00:00 TS 12.2424 141.165 main 1569 1564 __P___________ -1 12.2424 141.165 2 38 995 11 286
1950269N05153 1950 82 WP MM OSSIA 1950-09-28 06:00:00 TS 12.4000 140.600 main 1567 1552 __O___________ -1 12.4000 140.600 2 38 995 12 285
1950269N05153 1950 82 WP MM OSSIA 1950-09-28 09:00:00 TS 12.5575 140.000 main 1554 1493 __P___________ -1 12.5575 140.000 2 38 995 12 284
1950269N05153 1950 82 WP MM OSSIA 1950-09-28 12:00:00 TS 12.7000 139.400 main 1493 1440 __O___________ -1 12.7000 139.400 2 38 995 11 283
1950269N05153 1950 82 WP MM OSSIA 1950-09-28 15:00:00 TS 12.8072 138.857 main 1440 1377 __P___________ -1 12.8072 138.857 2 38 995 11 281
1950269N05153 1950 82 WP MM OSSIA 1950-09-28 18:00:00 TS 12.9000 138.300 main 1377 1314 __O___________ -1 12.9000 138.300 2 38 995 12 279
1950269N05153 1950 82 WP MM OSSIA 1950-09-28 21:00:00 TS 12.9849 137.672 main 1314 1241 __P___________ -1 12.9849 137.672 2 38 995 13 279
1950269N05153 1950 82 WP MM OSSIA 1950-09-29 00:00:00 TS 13.1000 137.000 main 1241 1181 __O___________ -1 13.1000 137.000 2 38 995 14 283
1950269N05153 1950 82 WP MM OSSIA 1950-09-29 03:00:00 TS 13.2998 136.315 main 1170 1101 __P___________ -1 13.2998 136.315 2 38 995 14 286
1950269N05153 1950 82 WP MM OSSIA 1950-09-29 06:00:00 TS 13.5000 135.600 main 1101 1031 __O___________ -1 13.5000 135.600 2 38 995 15 283
1950269N05153 1950 82 WP MM OSSIA 1950-09-29 09:00:00 TS 13.6148 134.857 main 1031 947 __P___________ -1 13.6148 134.857 2 43 993 15 278
1950269N05153 1950 82 WP MM OSSIA 1950-09-29 12:00:00 TS 13.7000 134.100 main 947 874 __O___________ -1 13.7000 134.100 3 48 992 15 277
1950269N05153 1950 82 WP MM OSSIA 1950-09-29 15:00:00 TS 13.7924 133.335 main 864 792 __P___________ -1 13.7924 133.335 3 48 992 15 278
1950269N05153 1950 82 WP MM OSSIA 1950-09-29 18:00:00 TS 13.9000 132.600 main 792 732 __O___________ -1 13.9000 132.600 3 48 992 14 281
1950269N05153 1950 82 WP MM OSSIA 1950-09-29 21:00:00 TS 14.0497 131.935 main 722 666 __P___________ -1 14.0497 131.935 3 48 991 13 283
1950269N05153 1950 82 WP MM OSSIA 1950-09-30 00:00:00 TS 14.2000 131.300 main 666 610 __O___________ -1 14.2000 131.300 3 48 990 13 282
1950269N05153 1950 82 WP MM OSSIA 1950-09-30 03:00:00 TS 14.3073 130.650 main 600 545 __P___________ -1 14.3073 130.650 3 48 989 13 279
1950269N05153 1950 82 WP MM OSSIA 1950-09-30 06:00:00 TS 14.4000 130.000 main 545 494 __O___________ -1 14.4000 130.000 3 48 988 13 279
1950269N05153 1950 82 WP MM OSSIA 1950-09-30 09:00:00 TS 14.4998 129.350 main 485 470 __P___________ -1 14.4998 129.350 3 53 986 11 287
1950269N05153 1950 82 WP MM OSSIA 1950-09-30 12:00:00 TS 14.7000 128.960 main 470 444 __O_______O___ -1 14.6000 128.700 3 58 985 15.1000 130.000 2 8 295
1950269N05153 1950 82 WP MM OSSIA 1950-09-30 15:00:00 TS 14.8543 128.572 main 451 427 __P_______P___ -1 14.6998 128.057 3 58 985 15.1635 129.602 2 8 290
1950269N05153 1950 82 WP MM OSSIA 1950-09-30 18:00:00 TS 14.9849 128.155 main 427 379 __O_______P___ -1 14.8000 127.400 3 58 985 15.2315 129.163 2 9 285
1950269N05153 1950 82 WP MM OSSIA 1950-09-30 21:00:00 TS 15.0931 127.671 main 379 306 __P_______P___ -1 14.8774 126.700 3 58 985 15.3089 128.642 2 13 282
1950269N05153 1950 82 WP MM OSSIA 1950-10-01 00:00:00 TS 15.2545 126.836 main 302 232 O_O______OOO__ jtwc_wp WP121950 15.4000 126.400 45 0 15.0000 126.000 3 58 985 15.4000 126.400 TC 45 15.4000 128.000 2 45 15.4000 126.400 45 991 300 18 282
1950269N05153 1950 82 WP MM OSSIA 1950-10-01 03:00:00 TS 15.4521 125.868 main 240 194 P_P______PPP__ WP121950 15.5640 125.323 47 0 15.2272 125.343 3 58 986 15.5640 125.323 TC 47 15.5091 127.210 2 47 15.5640 125.323 47 990 300 19 282
1950269N05153 1950 82 WP MM OSSIA 1950-10-01 06:00:00 TS 15.6391 124.920 main 190 190 O_O______OPO__ jtwc_wp WP121950 15.7000 124.400 50 0 15.5000 124.700 3 58 988 15.7000 124.400 TC 50 15.6412 126.312 2 50 15.7000 124.400 50 990 300 17 282
1950269N05153 1950 82 WP MM OSSIA 1950-10-01 09:00:00 TS 15.7976 124.115 main 201 140 P_P______PPP__ WP121950 15.8118 123.732 52 0 15.7500 124.020 3 58 988 15.8118 123.732 TC 52 15.8026 125.357 2 52 15.8118 123.732 52 988 300 14 285
1950269N05153 1950 82 WP MM OSSIA 1950-10-01 12:00:00 TS 16.0000 123.480 main 140 72 O_O______OOO__ jtwc_wp WP121950 16.0000 123.200 55 0 16.0000 123.400 3 58 988 16.0000 123.200 TC 55 16.0000 124.400 2 55 16.0000 123.200 55 987 300 13 293
1950269N05153 1950 82 WP MM OSSIA 1950-10-01 15:00:00 TS 16.3262 122.833 main 63 0 P_P______PPP__ WP121950 16.3700 122.605 57 0 16.2647 122.920 3 58 988 16.3700 122.605 TC 57 16.2562 123.430 2 57 16.3700 122.605 57 986 300 14 300
1950269N05153 1950 82 WP MM OSSIA 1950-10-01 18:00:00 TS 16.6888 122.256 main 0 0 O_O______OPO__ jtwc_wp WP121950 16.8000 122.100 60 0 16.5000 122.500 3 58 988 16.8000 122.100 TC 60 16.5440 122.480 2 60 16.8000 122.100 60 985 300 12 305
1950269N05153 1950 82 WP MM OSSIA 1950-10-01 21:00:00 TS 17.0182 121.796 main 0 0 P_P______PPP__ WP121950 17.1947 121.770 62 0 16.6724 122.057 3 58 988 17.1947 121.770 TC 62 16.8347 121.614 2 62 17.1947 121.770 62 984 330 10 306
1950269N05153 1950 82 WP MM OSSIA 1950-10-02 00:00:00 TS 17.2800 121.400 main 0 0 O_O______OOO__ jtwc_wp WP121950 17.5000 121.500 65 1 16.8000 121.600 3 58 988 17.5000 121.500 TC 65 17.1000 120.900 3 65 17.5000 121.500 65 983 360 9 298
1950269N05153 1950 82 WP MM OSSIA 1950-10-02 03:00:00 TS 17.4189 121.001 main 0 0 P_P______PPP__ WP121950 17.6299 121.165 67 1 16.9075 121.100 3 58 988 17.6299 121.165 TC 67 17.2974 120.412 3 67 17.6299 121.165 67 982 360 8 287
1950269N05153 1950 82 WP MM OSSIA 1950-10-02 06:00:00 TS 17.5139 120.615 main 0 0 O_O______OPO__ jtwc_wp WP121950 17.7000 120.800 70 1 17.0000 120.600 3 58 988 17.7000 120.800 TC 70 17.4697 120.076 3 70 17.7000 120.800 70 981 360 8 288
1950269N05153 1950 82 WP MM OSSIA 1950-10-02 09:00:00 TS 17.6519 120.235 main 15 15 P_P______PPP__ WP121950 17.8500 120.408 72 1 17.0774 120.127 3 58 986 17.8500 120.408 TC 72 17.6324 119.827 3 72 17.8500 120.408 72 980 360 8 292
1950269N05153 1950 82 WP MM OSSIA 1950-10-02 12:00:00 TS 17.8000 119.860 main 47 47 O_O______OOO__ jtwc_wp WP121950 18.0000 120.000 75 1 17.2000 119.700 3 58 985 18.0000 120.000 TC 75 17.8000 119.600 4 75 18.0000 120.000 75 979 360 8 293
1950269N05153 1950 82 WP MM OSSIA 1950-10-02 15:00:00 TS 17.9576 119.478 main 95 95 P_P______PPP__ WP121950 18.1225 119.593 77 1 17.4199 119.335 3 63 983 18.1225 119.593 TC 77 18.0009 119.277 4 77 18.1225 119.593 77 978 420 8 293
1950269N05153 1950 82 WP MM OSSIA 1950-10-02 18:00:00 TS 18.1015 119.113 main 138 138 O_O______OPO__ jtwc_wp WP121950 18.2000 119.200 80 1 17.7000 119.000 4 68 982 18.2000 119.200 TC 80 18.2075 118.963 4 80 18.2000 119.200 80 977 480 7 290
1950269N05153 1950 82 WP MM OSSIA 1950-10-02 21:00:00 TS 18.2065 118.757 main 172 172 P_P______PPP__ WP121950 18.2075 118.827 82 1 18.0000 118.635 4 68 981 18.2075 118.827 TC 82 18.4103 118.667 4 82 18.2075 118.827 82 975 450 7 287
1950269N05153 1950 82 WP MM OSSIA 1950-10-03 00:00:00 TS 18.3000 118.440 main 215 215 O_O______OOO__ jtwc_wp WP121950 18.2000 118.500 85 2 18.3000 118.300 4 68 980 18.2000 118.500 TC 85 18.6000 118.400 4 85 18.2000 118.500 85 974 420 6 290
1950269N05153 1950 82 WP MM OSSIA 1950-10-03 03:00:00 TS 18.3994 118.184 main 239 239 P_P______PPP__ WP121950 18.2199 118.242 87 2 18.5649 118.020 4 68 980 18.2199 118.242 TC 87 18.7722 118.171 4 88 18.2199 118.242 87 973 420 5 296
1950269N05153 1950 82 WP MM OSSIA 1950-10-03 06:00:00 TS 18.5259 117.954 main 263 263 O_O______OPO__ jtwc_wp WP121950 18.3000 118.000 90 2 18.8000 117.800 4 68 980 18.3000 118.000 TC 90 18.9297 117.970 4 92 18.3000 118.000 90 972 420 6 303
1950269N05153 1950 82 WP MM OSSIA 1950-10-03 09:00:00 TS 18.6995 117.693 main 301 301 P_P______PPP__ WP121950 18.4701 117.685 95 2 19.0150 117.627 4 68 979 18.4701 117.685 TC 95 19.0723 117.784 4 96 18.4701 117.685 95 971 450 6 309
1950269N05153 1950 82 WP MM OSSIA 1950-10-03 12:00:00 TS 18.9000 117.460 main 328 328 O_O______OOO__ jtwc_wp WP121950 18.7000 117.400 100 3 19.2000 117.500 4 68 978 18.7000 117.400 TC 100 19.2000 117.600 4 100 18.7000 117.400 100 970 480 6 315
1950269N05153 1950 82 WP MM OSSIA 1950-10-03 15:00:00 TS 19.0914 117.286 main 355 355 P_P______PPP__ WP121950 18.9349 117.212 100 3 19.3500 117.392 4 68 978 18.9349 117.212 TC 100 19.3021 117.400 4 100 18.9349 117.212 100 969 450 5 325
1950269N05153 1950 82 WP MM OSSIA 1950-10-03 18:00:00 TS 19.2985 117.160 main 371 371 O_O______OPO__ jtwc_wp WP121950 19.2000 117.100 100 3 19.5000 117.300 4 68 978 19.2000 117.100 TC 100 19.3924 117.200 4 100 19.2000 117.100 100 968 420 5 336
1950269N05153 1950 82 WP MM OSSIA 1950-10-03 21:00:00 TS 19.5448 117.071 main 382 347 P_P______PPP__ WP121950 19.5150 117.050 100 3 19.6925 117.207 4 68 976 19.5150 117.050 TC 100 19.4865 117.000 4 100 19.5150 117.050 100 967 420 5 341
1950269N05153 1950 82 WP MM OSSIA 1950-10-04 00:00:00 TS 19.7800 116.980 main 347 329 O_O______OOO__ jtwc_wp WP121950 19.8000 117.000 100 3 19.9000 117.100 4 68 975 19.8000 117.000 TC 100 19.6000 116.800 4 100 19.8000 117.000 100 966 420 5 331
1950269N05153 1950 82 WP MM OSSIA 1950-10-04 03:00:00 TS 19.9460 116.837 main 329 305 P_P______PPP__ WP121950 19.9575 116.872 90 2 20.1000 116.965 4 68 975 19.9575 116.872 TC 90 19.7574 116.604 4 92 19.9575 116.872 90 968 420 4 318
1950269N05153 1950 82 WP MM OSSIA 1950-10-04 06:00:00 TS 20.1070 116.662 main 305 277 O_O______OPO__ jtwc_wp WP121950 20.1000 116.700 80 1 20.3000 116.800 4 68 975 20.1000 116.700 TC 80 19.9349 116.408 4 85 20.1000 116.700 80 970 420 5 319
1950269N05153 1950 82 WP MM OSSIA 1950-10-04 09:00:00 TS 20.3219 116.485 main 277 251 P_P______PPP__ WP121950 20.3349 116.530 75 1 20.4849 116.630 4 68 977 20.3349 116.530 TC 75 20.1199 116.207 4 77 20.3349 116.530 75 971 420 6 320
1950269N05153 1950 82 WP MM OSSIA 1950-10-04 12:00:00 TS 20.5600 116.260 main 240 213 O_O______OOO__ jtwc_wp WP121950 20.6000 116.300 70 1 20.7000 116.400 4 68 980 20.6000 116.300 TC 70 20.3000 116.000 4 70 20.6000 116.300 70 973 420 7 316
1950269N05153 1950 82 WP MM OSSIA 1950-10-04 15:00:00 TS 20.8209 115.966 main 213 182 P_P______PPP__ WP121950 20.8726 115.965 67 1 21.0223 116.110 4 63 983 20.8726 115.965 TC 67 20.4647 115.827 4 67 20.8726 115.965 67 974 390 8 309
1950269N05153 1950 82 WP MM OSSIA 1950-10-04 18:00:00 TS 21.0443 115.628 main 182 151 O_O______OPO__ jtwc_wp WP121950 21.1000 115.600 65 1 21.3000 115.700 3 58 986 21.1000 115.600 TC 65 20.6215 115.640 4 65 21.1000 115.600 65 976 360 7 298
1950269N05153 1950 82 WP MM OSSIA 1950-10-04 21:00:00 TS 21.1585 115.286 main 151 137 P_P______PPP__ WP121950 21.2074 115.300 62 0 21.4028 115.122 3 53 988 21.2074 115.300 TC 62 20.7676 115.408 4 62 21.2074 115.300 62 978 360 7 285
1950269N05153 1950 82 WP MM OSSIA 1950-10-05 00:00:00 TS 21.2294 114.906 main 137 113 O_O______OOO__ jtwc_wp WP121950 21.3000 115.000 60 0 21.4000 114.500 3 48 990 21.3000 115.000 TC 60 20.9000 115.100 2 60 21.3000 115.000 60 980 360 8 282
1950269N05153 1950 82 WP MM OSSIA 1950-10-05 03:00:00 TS 21.3180 114.474 main 113 101 P_P______PPP__ WP121950 21.4727 114.663 57 0 21.3647 113.985 3 48 990 21.4727 114.663 TC 57 21.0392 114.680 2 21.4727 114.663 57 982 420 9 278
1950269N05153 1950 82 WP MM OSSIA 1950-10-05 06:00:00 TS 21.3584 113.967 main 103 78 O_O______OPO__ jtwc_wp WP121950 21.7000 114.300 55 0 21.3000 113.500 3 48 990 21.7000 114.300 TC 55 21.1606 114.183 2 21.7000 114.300 55 984 480 11 266
1950269N05153 1950 82 WP MM OSSIA 1950-10-05 09:00:00 TS 21.2507 113.319 main 73 70 __P_______P___ WP121950 -1 21.2499 112.993 3 48 991 TC 21.2516 113.645 2 11 264
1950269N05153 1950 82 WP MM OSSIA 1950-10-05 12:00:00 TS 21.2500 112.800 main 59 56 __O_______O___ -1 21.2000 112.500 3 48 992 21.3000 113.100 2 9 269
1950269N05153 1950 82 WP MM OSSIA 1950-10-05 15:00:00 TS 21.2311 112.337 main 55 45 __P_______P___ -1 21.1498 112.050 3 48 992 21.3124 112.624 2 9 266
1950269N05153 1950 82 WP MM OSSIA 1950-10-05 18:00:00 TS 21.1905 111.873 main 45 33 __O_______P___ -1 21.1000 111.600 3 48 992 21.2810 112.145 2 9 263
1950269N05153 1950 82 WP MM OSSIA 1950-10-05 21:00:00 TS 21.1257 111.379 main 35 30 __P_______P___ -1 21.0424 111.115 3 43 993 21.2091 111.643 2 10 262
1950269N05153 1950 82 WP MM OSSIA 1950-10-06 00:00:00 TS 21.0500 110.850 main 30 10 __O_______O___ -1 21.0000 110.600 2 38 995 21.1000 111.100 2 10 261
1950269N05153 1950 82 WP MM OSSIA 1950-10-06 03:00:00 TS 20.9663 110.295 main 10 0 __P_______P___ -1 20.9919 110.103 2 33 996 20.9407 110.488 2 11 260
1950269N05153 1950 82 WP MM OSSIA 1950-10-06 06:00:00 TS 20.8572 109.692 main 0 0 __O_______P___ -1 21.0000 109.500 1 29 998 20.7501 109.836 2 12 258
1950269N05153 1950 82 WP MM OSSIA 1950-10-06 09:00:00 TS 20.7075 109.013 main 73 73 __P_______P___ -1 21.0038 108.707 1 29 999 20.5594 109.166 2 13 255
1950269N05153 1950 82 WP MM OSSIA 1950-10-06 12:00:00 TS 20.5200 108.360 main 113 91 __O_______O___ -1 21.0000 107.800 1 29 1000 20.4000 108.500 2 12 249
1950269N05153 1950 82 WP MM OSSIA 1950-10-06 15:00:00 NR 20.2958 107.854 main 93 73 __________P___ -1 1 20.2958 107.854 2 11 255
1950269N05153 1950 82 WP MM OSSIA 1950-10-06 18:00:00 NR 20.2386 107.226 main 63 10 __________P___ -1 20.2386 107.226 2 12 266
1950269N05153 1950 82 WP MM OSSIA 1950-10-06 21:00:00 NR 20.2121 106.610 main 10 0 __________P___ -1 20.2121 106.610 2 12 268
1950269N05153 1950 82 WP MM OSSIA 1950-10-07 00:00:00 NR 20.2000 106.000 main 0 __________O___ -1 20.2000 106.000 2 11 269

デジタル台風データ・検索

IBTrACS Databaseについて

本データベースは、米国NOAAが公開する1842年以降の世界の熱帯低気圧のベストトラックデータアーカイブInternational Best Track Archive for Climate Stewardship (IBTrACS)を、ウェブで閲覧しやすい形式に変換したものです。

最終更新日:2021-12-03